Terminal Aerodrome Forecast
Issued by NWS

Home | Current Version | Previous Version | Text Only | Print | Product List | Glossary On
Versions: 1 2 3 4 5 6 7 8 9 10 11 12
023
FTUS45 KVEF 290520
TAFDAG
TAF
KDAG 290520Z 2906/3006 25012KT P6SM SCT120 SCT250
     FM291200 28010KT P6SM SCT250
     FM291900 VRB06KT P6SM FEW120 SCT250
     FM300200 24012KT P6SM SCT250=

USA.gov is the U.S. government's official web portal to all federal, state and local government web resources and services.